Latest Weather Observations for Dubbo

IDN60801

Issued at 12:22 pm EDT Thursday 21 March 2019 (issued every 10 minutes, with the page automatically refreshed every 10 minutes)

About weather observations | Map of weather stations | Latest weather observations for NSW | Other Formats
Station Details ID: 065070 Name: DUBBO AIRPORT AWS Lat: -32.22 Lon: 148.58 Height: 284.0 m
Data from the previous 72 hours. | See also: Recent months at Dubbo
Date/Time
EDT
Temp
°C
App
Temp
°C
Dew
Point
°C
Rel
Hum
%
Delta-T
°C
Wind Press
QNH
hPa
Press
MSL
hPa
Rain since
9am
mm
Dir  Spd
km/h
Gust
km/h
Spd
kts
Gust
kts
21/12:00pm 29.5 27.7 14.5 40 9.2 ESE 17 24 9 13 1016.3 1015.1 0.0
21/11:30am 28.5 26.8 14.7 43 8.5 ENE 17 24 9 13 1016.6 1015.4 0.0
21/11:00am 27.5 26.0 15.2 47 7.6 E 17 24 9 13 1016.7 1015.5 0.0
21/10:30am 26.0 23.9 15.1 51 6.7 ENE 20 30 11 16 1016.9 1015.7 0.0
21/10:00am 25.4 23.4 15.4 54 6.1 E 20 28 11 15 1016.7 1015.5 0.0
21/09:30am 24.1 22.3 15.6 59 5.2 E 19 24 10 13 1016.3 1015.1 0.0
21/09:00am 22.7 20.4 15.8 65 4.2 E 22 28 12 15 1016.0 1014.8 0.0
21/08:30am 21.7 19.9 16.0 70 3.5 E 20 30 11 16 1015.8 1014.6 0.0
21/08:00am 20.4 19.6 16.0 76 2.7 ESE 15 19 8 10 1015.7 1014.5 0.0
21/07:30am 19.1 18.1 15.6 80 2.1 ESE 15 20 8 11 1015.4 1014.2 0.0
21/07:00am 19.2 17.9 15.7 80 2.1 E 17 22 9 12 1015.2 1014.0 0.0
21/06:30am 19.2 18.2 15.5 79 2.2 E 15 20 8 11 1015.0 1013.8 0.0
21/06:00am 19.4 17.6 15.5 78 2.3 E 19 24 10 13 1014.6 1013.4 0.0
21/05:30am 19.8 18.2 15.9 78 2.4 E 19 26 10 14 1014.5 1013.3 0.0
21/05:00am 19.9 18.3 16.0 78 2.4 E 19 24 10 13 1014.3 1013.1 0.0
21/04:30am 20.1 19.6 15.9 77 2.5 E 13 19 7 10 1014.2 1013.0 0.0
21/04:00am 20.6 18.8 16.0 75 2.8 E 20 26 11 14 1014.1 1012.9 0.0
21/03:30am 20.8 19.9 15.8 73 3.0 ESE 15 20 8 11 1014.1 1012.9 0.0
21/03:00am 21.2 19.4 16.0 72 3.2 E 20 32 11 17 1014.0 1012.8 0.0
21/02:30am 21.3 20.0 15.8 71 3.3 E 17 22 9 12 1014.2 1013.0 0.0
21/02:00am 21.5 21.1 15.1 67 3.8 ENE 11 22 6 12 1014.3 1013.1 0.0
21/01:30am 22.2 21.2 14.6 62 4.5 ENE 13 20 7 11 1014.4 1013.2 0.0
21/01:00am 22.7 21.1 14.0 58 5.1 E 15 22 8 12 1014.3 1013.1 0.0
21/12:30am 23.1 21.8 13.6 55 5.6 E 13 22 7 12 1014.2 1013.0 0.0
21/12:00am 23.8 21.7 13.6 52 6.0 ENE 17 24 9 13 1014.3 1013.1 0.0
 
Date/Time
EDT
Temp
°C
App
Temp
°C
Dew
Point
°C
Rel
Hum
%
Delta-T
°C
Wind Press
QNH
hPa
Press
MSL
hPa
Rain since
9am
mm
Dir  Spd
km/h
Gust
km/h
Spd
kts
Gust
kts
20/11:30pm 23.2 21.4 13.4 54 5.8 E 15 20 8 11 1014.2 1013.0 0.0
20/11:00pm 23.0 22.3 13.2 54 5.7 ENE 9 13 5 7 1014.0 1012.8 0.0
20/10:30pm 24.5 23.9 13.4 50 6.6 ENE 9 11 5 6 1013.9 1012.7 0.0
20/10:00pm 25.0 24.0 13.5 48 6.8 ESE 11 13 6 7 1013.6 1012.4 0.0
20/09:30pm 25.2 25.0 13.7 49 6.8 S 7 9 4 5 1013.1 1011.9 0.0
20/09:00pm 25.2 25.3 14.0 49 6.7 SE 6 7 3 4 1012.8 1011.5 0.0
20/08:30pm 26.0 25.9 13.2 45 7.6 SE 6 7 3 4 1012.4 1011.1 0.0
20/08:00pm 26.3 25.8 12.7 43 8.0 SE 7 9 4 5 1012.0 1010.8 0.0
20/07:30pm 27.2 25.7 12.0 38 8.9 SE 11 13 6 7 1011.8 1010.6 0.0
20/07:00pm 29.4 28.7 11.9 34 10.3 ESE 7 11 4 6 1011.6 1010.4 0.0
20/06:30pm 29.9 28.9 12.3 33 10.4 ESE 9 11 5 6 1011.7 1010.5 0.0
20/06:00pm 30.0 28.0 11.5 32 10.9 ESE 13 20 7 11 1011.5 1010.3 0.0
20/05:30pm 30.9 28.8 12.3 32 11.1 SE 15 20 8 11 1011.5 1010.3 0.0
20/05:00pm 32.6 30.7 11.7 28 12.4 SW 13 20 7 11 1011.2 1010.0 0.0
20/04:30pm 31.4 30.9 12.2 30 11.4 NE 6 15 3 8 1011.4 1010.2 0.0
20/04:00pm 31.8 30.3 13.1 32 11.3 SE 13 20 7 11 1011.6 1010.4 0.0
20/03:30pm 31.2 29.5 12.5 31 11.2 ESE 13 28 7 15 1011.9 1010.7 0.0
20/03:00pm 31.3 29.8 13.1 33 11.0 ESE 13 26 7 14 1012.3 1011.0 0.0
20/02:30pm 30.7 28.3 12.6 33 10.8 SSE 17 26 9 14 1012.8 1011.5 0.0
20/02:00pm 30.4 27.8 13.2 35 10.4 SE 19 28 10 15 1013.3 1012.1 0.0
20/01:30pm 30.1 27.6 13.4 36 10.1 SSE 19 28 10 15 1013.8 1012.6 0.0
20/01:00pm 30.0 27.9 13.7 37 9.9 S 17 24 9 13 1014.2 1013.0 0.0
20/12:30pm 28.7 27.5 14.1 40 8.9 SE 13 28 7 15 1014.5 1013.3 0.0
20/12:00pm 26.9 27.1 14.3 46 7.6 ESE 6 17 3 9 1014.8 1013.6 0.0
20/11:30am 26.4 25.3 14.2 47 7.4 E 13 20 7 11 1015.2 1014.0 0.0
20/11:00am 26.1 25.7 15.2 51 6.7 E 11 17 6 9 1015.4 1014.2 0.0
20/10:30am 25.5 24.8 15.5 54 6.1 ESE 13 20 7 11 1015.5 1014.3 0.0
20/10:00am 24.1 23.4 15.3 58 5.3 ESE 13 19 7 10 1015.4 1014.2 0.0
20/09:30am 23.2 21.8 15.5 62 4.7 ESE 17 24 9 13 1015.2 1014.0 0.0
20/09:00am 22.1 21.0 16.4 70 3.5 ESE 17 22 9 12 1015.1 1013.9 0.0
20/08:30am 20.4 20.0 16.2 77 2.6 ESE 13 19 7 10 1014.8 1013.6 0.0
20/08:00am 19.0 18.5 16.0 83 1.8 SE 13 15 7 8 1014.7 1013.5 0.0
20/07:30am 17.6 17.1 15.8 89 1.1 SE 13 15 7 8 1014.2 1013.0 0.0
20/07:00am 17.3 16.6 15.5 89 1.1 SSE 13 15 7 8 1014.1 1012.9 0.0
20/06:30am 17.6 17.0 15.6 88 1.2 SE 13 15 7 8 1013.8 1012.6 0.0
20/06:00am 17.6 17.2 15.2 86 1.4 SE 11 15 6 8 1013.5 1012.3 0.0
20/05:30am 18.3 17.5 15.2 82 1.8 ESE 13 19 7 10 1013.3 1012.1 0.0
20/05:00am 19.0 17.6 15.5 80 2.1 ESE 17 24 9 13 1013.0 1011.8 0.0
20/04:30am 19.5 17.7 15.6 78 2.3 ESE 19 24 10 13 1013.0 1011.8 0.0
20/04:00am 19.6 18.1 15.3 76 2.6 ESE 17 22 9 12 1013.0 1011.8 0.0
20/03:30am 19.9 18.0 15.1 74 2.9 ESE 19 26 10 14 1013.1 1011.9 0.0
20/03:00am 20.3 18.4 15.3 73 3.0 E 19 24 10 13 1013.3 1012.1 0.0
20/02:30am 20.3 19.1 15.1 72 3.1 ESE 15 24 8 13 1013.3 1012.1 0.0
20/02:00am 20.5 19.3 15.1 71 3.2 ESE 15 20 8 11 1013.5 1012.3 0.0
20/01:30am 20.8 19.7 15.4 71 3.2 E 15 19 8 10 1013.5 1012.3 0.0
20/01:00am 20.6 19.7 14.9 70 3.4 E 13 20 7 11 1013.6 1012.4 0.0
20/12:30am 21.5 20.1 14.6 65 4.1 E 15 20 8 11 1013.6 1012.4 0.0
20/12:00am 22.0 19.8 14.4 62 4.5 E 19 26 10 14 1013.7 1012.5 0.0
 
Date/Time
EDT
Temp
°C
App
Temp
°C
Dew
Point
°C
Rel
Hum
%
Delta-T
°C
Wind Press
QNH
hPa
Press
MSL
hPa
Rain since
9am
mm
Dir  Spd
km/h
Gust
km/h
Spd
kts
Gust
kts
19/11:30pm 21.9 20.7 14.0 61 4.7 ESE 13 19 7 10 1013.7 1012.5 0.0
19/11:00pm 23.4 20.8 13.3 53 5.9 SSE 19 24 10 13 1013.4 1012.2 0.0
19/10:30pm 23.3 21.6 12.6 51 6.2 SSE 13 15 7 8 1013.2 1012.0 0.0
19/10:00pm 23.5 21.9 12.8 51 6.2 SSE 13 15 7 8 1013.0 1011.8 0.0
19/09:30pm 23.4 22.1 12.4 50 6.4 S 11 13 6 7 1013.0 1011.8 0.0
19/09:00pm 23.8 22.5 12.4 48 6.6 S 11 13 6 7 1012.7 1011.4 0.0
19/08:30pm 23.8 23.0 12.8 50 6.4 SSE 9 11 5 6 1012.3 1011.0 0.0
19/08:00pm 25.0 23.6 12.2 44 7.4 SSE 11 13 6 7 1011.7 1010.5 0.0
19/07:30pm 26.2 24.7 11.9 41 8.3 S 11 13 6 7 1011.3 1010.1 0.0
19/07:00pm 27.7 25.8 11.7 37 9.3 SSE 13 17 7 9 1011.1 1009.9 0.0
19/06:30pm 29.2 26.4 11.3 33 10.4 SE 17 24 9 13 1010.9 1009.7 0.0
19/06:00pm 29.2 27.4 12.2 35 10.1 SSE 13 17 7 9 1010.7 1009.5 0.0
19/05:30pm 29.8 27.5 11.8 33 10.6 S 15 24 8 13 1010.5 1009.3 0.0
19/05:00pm 28.6 26.0 12.1 36 9.7 SSE 17 24 9 13 1010.6 1009.4 0.0
19/04:30pm 28.9 27.2 12.3 36 9.8 SSE 13 20 7 11 1010.6 1009.4 0.0
19/04:00pm 28.7 26.4 11.7 35 9.9 SSE 15 24 8 13 1010.8 1009.6 0.0
19/03:30pm 29.7 27.5 12.2 34 10.4 S 15 28 8 15 1011.2 1010.0 0.0
19/03:00pm 29.8 27.8 12.7 35 10.2 S 15 30 8 16 1011.5 1010.3 0.0
19/02:30pm 29.4 26.5 12.3 34 10.1 SSW 19 30 10 16 1012.0 1010.8 0.0
19/02:00pm 28.6 25.6 12.1 36 9.7 S 19 26 10 14 1012.5 1011.2 0.0
19/01:30pm 27.6 26.3 12.4 39 8.9 S 11 24 6 13 1012.9 1011.7 0.0
19/01:00pm 27.8 26.0 13.3 40 8.7 SE 15 24 8 13 1013.2 1012.0 0.0
19/12:30pm 26.9 25.2 13.6 44 8.0 SSW 15 22 8 12 1013.8 1012.6 0.0
19/12:00pm 26.7 25.5 14.1 46 7.6 SE 13 20 7 11 1014.2 1013.0 0.0
19/11:30am 25.3 24.4 13.8 49 6.9 S 11 19 6 10 1014.4 1013.2 0.0
19/11:00am 24.1 22.9 13.9 53 6.1 SE 13 20 7 11 1014.7 1013.5 0.0
19/10:30am 23.6 22.9 14.3 56 5.5 SE 11 15 6 8 1014.8 1013.6 0.0
19/10:00am 22.2 20.3 14.3 61 4.7 SE 17 20 9 11 1014.8 1013.6 0.0
19/09:30am 21.1 19.4 14.7 67 3.8 SSE 17 22 9 12 1014.6 1013.4 0.0
19/09:00am 19.5 17.8 14.7 74 2.8 SE 17 20 9 11 1014.2 1013.0 0.0
19/08:30am 18.1 15.8 14.6 80 2.0 SE 20 24 11 13 1013.9 1012.7 0.0
19/08:00am 17.2 16.7 15.0 87 1.3 SE 11 15 6 8 1013.6 1012.4 0.0
19/07:30am 16.1 15.2 14.8 92 0.8 SE 13 15 7 8 1013.3 1012.1 0.0
19/07:00am 15.9 14.9 14.6 92 0.8 SE 13 17 7 9 1013.1 1011.9 0.0
19/06:30am 16.0 15.1 14.9 93 0.6 SE 13 15 7 8 1012.7 1011.4 0.0
19/06:00am 15.9 15.0 14.8 93 0.6 SSE 13 15 7 8 1012.6 1011.3 0.0
19/05:30am 15.9 15.2 14.4 91 0.9 SE 11 13 6 7 1012.7 1011.4 0.0
19/05:00am 16.7 15.9 15.1 90 0.9 SE 13 15 7 8 1012.4 1011.1 0.0
19/04:30am 17.2 16.1 15.2 88 1.2 SSE 15 17 8 9 1012.1 1010.9 0.0
19/04:00am 17.6 16.9 15.4 87 1.3 SSE 13 17 7 9 1012.3 1011.0 0.0
19/03:30am 17.6 19.0 15.4 87 1.3 SSE 2 9 1 5 1012.6 1011.3 0.0
19/03:00am 17.4 17.8 15.2 87 1.3 SSE 7 9 4 5 1012.7 1011.4 0.0
19/02:30am 17.2 18.0 14.8 86 1.4 ESE 4 11 2 6 1012.8 1011.5 0.0
19/02:00am 17.8 17.4 15.2 85 1.5 SE 11 13 6 7 1012.8 1011.5 0.0
19/01:30am 18.0 17.6 15.1 83 1.7 SE 11 13 6 7 1013.0 1011.8 0.0
19/01:00am 18.2 17.3 14.9 81 1.9 SE 13 15 7 8 1013.2 1012.0 0.0
19/12:30am 18.9 17.3 15.0 78 2.3 SE 17 17 9 9 1013.2 1012.0 0.0
19/12:00am 19.2 17.6 15.1 77 2.4 SE 17 19 9 10 1013.2 1012.0 0.0
 
Date/Time
EDT
Temp
°C
App
Temp
°C
Dew
Point
°C
Rel
Hum
%
Delta-T
°C
Wind Press
QNH
hPa
Press
MSL
hPa
Rain since
9am
mm
Dir  Spd
km/h
Gust
km/h
Spd
kts
Gust
kts
18/11:30pm 19.3 18.4 14.8 75 2.7 ESE 13 17 7 9 1013.3 1012.1 0.0
18/11:00pm 19.0 18.0 14.7 76 2.5 SE 13 15 7 8 1013.4 1012.2 0.0
18/10:30pm 19.8 19.1 14.4 71 3.2 ESE 11 13 6 7 1013.4 1012.2 0.0
18/10:00pm 20.7 20.0 14.4 67 3.7 SE 11 13 6 7 1013.3 1012.1 0.0
18/09:30pm 22.0 20.9 14.4 62 4.5 SE 13 17 7 9 1013.0 1011.8 0.0
18/09:00pm 21.3 20.1 14.0 63 4.3 ESE 13 15 7 8 1012.7 1011.4 0.0
18/08:30pm 20.2 19.1 14.3 69 3.5 ESE 13 15 7 8 1012.1 1010.9 0.0
18/08:00pm 20.5 20.0 13.7 65 4.0 E 9 13 5 7 1011.7 1010.5 0.0
18/07:30pm 23.1 24.1 13.3 54 5.7 CALM 0 0 0 0 1011.5 1010.3 0.0
18/07:00pm 24.1 25.1 13.3 51 6.4 CALM 0 0 0 0 1011.4 1010.2 0.0
18/06:30pm 24.3 25.1 12.6 48 6.8 CALM 0 2 0 1 1011.4 1010.2 0.0
18/06:00pm 23.9 23.0 12.5 49 6.6 SSE 9 13 5 7 1011.4 1010.2 0.0
18/05:30pm 22.6 18.1 12.5 53 5.8 SSE 28 37 15 20 1011.4 1010.2 0.0
18/05:00pm 26.4 21.3 10.5 37 9.0 S 28 39 15 21 1011.0 1009.8 0.0
18/04:30pm 27.6 23.9 10.3 34 9.8 SSE 20 28 11 15 1010.9 1009.7 0.0
18/04:00pm 27.9 23.7 11.0 35 9.7 SSE 24 35 13 19 1010.9 1009.7 0.0
18/03:30pm 29.4 25.6 9.0 28 11.5 SSW 19 28 10 15 1011.0 1009.8 0.0
18/03:00pm 28.4 24.7 9.6 31 10.6 S 19 32 10 17 1011.3 1010.1 0.0
18/02:30pm 28.0 26.9 12.0 37 9.4 W 9 17 5 9 1011.9 1010.7 0.0
18/02:00pm 27.8 25.1 13.0 40 8.8 W 19 26 10 14 1012.5 1011.2 0.0
18/01:30pm 27.3 23.4 13.3 42 8.3 W 26 33 14 18 1013.1 1011.9 0.0
18/01:00pm 26.8 22.5 13.2 43 8.1 W 28 39 15 21 1013.5 1012.3 0.0
18/12:38pm 26.6 22.6 14.0 46 7.6 W 28 46 15 25 1013.8 1012.6 0.0
18/12:30pm 26.1 22.8 13.9 47 7.3 WNW 24 33 13 18 1013.8 1012.6 0.0

Other formats

Comma delimited format used in spreadsheet applications
http://www.bom.gov.au/fwo/IDN60801/IDN60801.95719.axf

JavaScript Object Notation format (JSON) in row-major order
http://www.bom.gov.au/fwo/IDN60801/IDN60801.95719.json

Data quality

Most of these data are generated automatically and are frequently updated. Quality checks on data are not normally performed. It is possible for incorrect values to appear. Refer to information at About Latest Weather Observations and please check the disclaimer before using these data.